Time;durP1;ratioP1;P1;durP2;ratioP2;P2;SDS_P1;SDS_P2;PMS_P1;PMS_P2;Temp;Humidity;BMP_temperature;BMP_pressure;BME280_temperature;BME280_humidity;BME280_pressure;Samples;Min_cycle;Max_cycle;Signal;HPM_P1;HPM_P2
2023/01/20 00:01:20;;;;;;;15.63;14.48;;;;;;;3.57;69.31;100964.25;5074446;28;20024;-77
2023/01/20 00:03:46;;;;;;;16.50;15.18;;;;;;;3.57;69.36;100960.75;5073200;28;20032;-77
2023/01/20 00:06:12;;;;;;;15.65;14.05;;;;;;;3.56;69.47;100962.59;5056448;28;20029;-77
2023/01/20 00:08:38;;;;;;;15.98;14.48;;;;;;;3.57;69.35;100968.75;5074165;28;20098;-77
2023/01/20 00:11:05;;;;;;;19.10;17.20;;;;;;;3.56;69.16;100975.94;5074132;28;20089;-78
2023/01/20 00:13:31;;;;;;;14.68;13.65;;;;;;;3.56;69.32;100969.78;5072946;28;20039;-77
2023/01/20 00:15:57;;;;;;;18.17;16.65;;;;;;;3.56;69.24;100975.13;5074250;28;20028;-77
2023/01/20 00:18:22;;;;;;;18.42;16.55;;;;;;;3.56;69.29;100973.28;5074011;28;20039;-77
2023/01/20 00:20:48;;;;;;;17.27;15.68;;;;;;;3.56;69.25;100980.47;5072700;28;20078;-77
2023/01/20 00:23:13;;;;;;;17.15;15.43;;;;;;;3.56;69.56;100977.81;5072631;28;20032;-78
2023/01/20 00:25:39;;;;;;;17.30;15.48;;;;;;;3.56;69.31;100981.28;5072770;28;20024;-78
2023/01/20 00:28:04;;;;;;;16.42;14.60;;;;;;;3.55;69.57;100984.97;5073911;28;20060;-77
2023/01/20 00:30:30;;;;;;;21.45;16.58;;;;;;;3.55;69.53;100984.13;5074091;28;20054;-78
2023/01/20 00:32:55;;;;;;;17.15;15.52;;;;;;;3.54;69.20;100986.00;5074216;28;20082;-76
2023/01/20 00:35:21;;;;;;;24.15;16.85;;;;;;;3.55;69.55;100989.47;5074084;28;20032;-76
2023/01/20 00:37:46;;;;;;;19.10;14.90;;;;;;;3.54;69.48;100988.66;5073295;28;20056;-76
2023/01/20 00:40:12;;;;;;;12.90;11.75;;;;;;;3.54;69.43;100991.34;5073041;28;20111;-76
2023/01/20 00:42:37;;;;;;;15.75;14.43;;;;;;;3.54;69.57;100985.19;5073622;28;20365;-76
2023/01/20 00:45:03;;;;;;;15.93;14.52;;;;;;;3.53;69.33;100986.16;5073591;28;20028;-76
2023/01/20 00:47:28;;;;;;;15.85;14.55;;;;;;;3.53;69.23;100995.03;5072134;28;20040;-76
2023/01/20 00:49:54;;;;;;;18.25;15.82;;;;;;;3.53;69.45;101000.38;5073311;28;20395;-76
2023/01/20 00:52:19;;;;;;;14.52;13.18;;;;;;;3.53;69.49;100999.53;5073317;28;20033;-76
2023/01/20 00:54:45;;;;;;;20.52;17.35;;;;;;;3.53;69.55;101005.72;5073214;28;20055;-76
2023/01/20 00:57:10;;;;;;;13.77;12.55;;;;;;;3.54;69.49;101011.88;5073514;28;20475;-75
2023/01/20 00:59:36;;;;;;;17.13;15.85;;;;;;;3.52;69.57;101006.72;5073480;28;20468;-75
2023/01/20 01:02:02;;;;;;;20.25;16.08;;;;;;;3.53;69.40;101010.22;5073322;28;20457;-75
2023/01/20 01:04:27;;;;;;;16.23;14.80;;;;;;;3.53;69.59;101016.41;5073408;28;20032;-75
2023/01/20 01:06:53;;;;;;;19.85;15.80;;;;;;;3.54;69.53;101017.22;5072605;28;20044;-75
2023/01/20 01:09:20;;;;;;;17.02;15.35;;;;;;;3.53;69.41;101020.91;5071891;28;20033;-75
2023/01/20 01:11:48;;;;;;;15.52;14.15;;;;;;;3.54;69.52;101025.22;5073157;28;20036;-75
2023/01/20 01:14:15;;;;;;;17.20;15.55;;;;;;;3.53;69.23;101019.06;5073289;28;20039;-76
2023/01/20 01:16:40;;;;;;;13.20;12.30;;;;;;;3.52;69.68;101020.06;5073739;28;20032;-76
2023/01/20 01:19:05;;;;;;;15.57;13.85;;;;;;;3.54;69.61;101030.56;5073530;28;20029;-76
2023/01/20 01:21:31;;;;;;;17.38;15.18;;;;;;;3.54;69.58;101033.25;5072606;28;20431;-76
2023/01/20 01:23:56;;;;;;;23.35;17.83;;;;;;;3.53;69.38;101036.91;5072005;28;20036;-76
2023/01/20 01:26:21;;;;;;;16.15;14.90;;;;;;;3.52;69.24;101032.59;5071751;28;20523;-76
2023/01/20 01:28:48;;;;;;;12.05;11.25;;;;;;;3.53;69.33;101031.56;5072055;28;20040;-76
2023/01/20 01:31:15;;;;;;;20.95;16.50;;;;;;;3.53;69.77;101032.44;5071796;28;20468;-76
2023/01/20 01:33:41;;;;;;;17.55;15.80;;;;;;;3.52;69.52;101025.41;5071904;28;20082;-75
2023/01/20 01:36:11;;;;;;;21.80;17.02;;;;;;;3.53;69.50;101027.09;5072989;28;20029;-76
2023/01/20 01:38:36;;;;;;;16.38;15.02;;;;;;;3.52;69.37;101028.09;5071786;28;20025;-76
2023/01/20 01:41:02;;;;;;;13.70;12.65;;;;;;;3.53;69.85;101034.25;5073564;28;20461;-76
2023/01/20 01:43:29;;;;;;;16.95;14.45;;;;;;;3.54;69.77;101035.91;5073008;28;20052;-76
2023/01/20 01:45:55;;;;;;;26.35;18.17;;;;;;;3.52;69.43;101033.44;5072629;28;20029;-75
2023/01/20 01:48:25;;;;;;;13.50;12.65;;;;;;;3.52;69.60;101037.94;5071707;28;20380;-75
2023/01/20 01:51:06;;;;;;;17.35;14.27;;;;;;;3.53;69.64;101040.44;5075208;28;20364;-75
2023/01/20 01:53:38;;;;;;;11.40;10.70;;;;;;;3.53;69.69;101050.28;5076405;28;20465;-75
2023/01/20 01:56:04;;;;;;;13.23;12.23;;;;;;;3.52;69.33;101054.78;5077102;28;20043;-75
2023/01/20 01:58:36;;;;;;;16.02;14.40;;;;;;;3.52;69.60;101056.63;5076267;28;20073;-75
2023/01/20 02:01:02;;;;;;;15.75;14.18;;;;;;;3.53;69.61;101055.63;5076304;28;20094;-75
2023/01/20 02:03:37;;;;;;;13.02;11.82;;;;;;;3.52;69.59;101057.47;5076302;28;20033;-78
2023/01/20 02:06:03;;;;;;;12.85;11.73;;;;;;;3.52;69.47;101053.97;5076527;28;20028;-76
2023/01/20 02:08:28;;;;;;;23.75;15.77;;;;;;;3.52;69.61;101059.31;5076945;28;20028;-75
2023/01/20 02:10:54;;;;;;;16.40;15.02;;;;;;;3.51;69.71;101053.16;5075225;28;20066;-75
2023/01/20 02:13:19;;;;;;;13.73;12.80;;;;;;;3.52;69.58;101062.81;5076679;28;20025;-75
2023/01/20 02:16:01;;;;;;;19.08;13.80;;;;;;;3.52;69.58;101054.78;5075193;28;20352;-75
2023/01/20 02:18:45;;;;;;;17.58;16.00;;;;;;;3.52;69.51;101061.97;5076202;28;20457;-75
2023/01/20 02:21:46;;;;;;;15.60;13.77;;;;;;;3.50;69.90;101051.47;5076179;28;20426;-76
2023/01/20 02:24:31;;;;;;;16.52;13.77;;;;;;;3.50;69.35;101056.00;5075767;28;20507;-75
2023/01/20 02:27:18;;;;;;;15.55;14.00;;;;;;;3.49;69.67;101055.19;5074921;28;20434;-76
2023/01/20 02:30:05;;;;;;;11.48;10.77;;;;;;;3.47;69.63;101050.00;5076320;28;20032;-76
2023/01/20 02:32:48;;;;;;;13.93;11.90;;;;;;;3.49;69.53;101043.66;5075987;28;20021;-76
2023/01/20 02:35:26;;;;;;;13.30;12.50;;;;;;;3.49;69.63;101041.81;5075722;28;20064;-76
2023/01/20 02:38:13;;;;;;;14.38;13.30;;;;;;;3.49;69.41;101041.81;5075894;28;20370;-76
2023/01/20 02:41:02;;;;;;;16.98;15.35;;;;;;;3.47;69.81;101043.84;5075851;28;20025;-76
2023/01/20 02:43:58;;;;;;;26.50;18.30;;;;;;;3.46;69.79;101056.38;5075618;28;20021;-77
2023/01/20 02:46:49;;;;;;;16.73;13.23;;;;;;;3.45;69.53;101052.06;5067987;28;20063;-77
2023/01/20 02:49:31;;;;;;;18.48;16.58;;;;;;;3.45;69.44;101056.56;5076142;28;20025;-76
2023/01/20 02:52:05;;;;;;;12.63;11.77;;;;;;;3.44;69.43;101057.59;5076113;28;20475;-76
2023/01/20 02:54:35;;;;;;;15.57;14.38;;;;;;;3.43;69.78;101056.75;5075427;28;20083;-76
2023/01/20 02:57:05;;;;;;;26.33;19.35;;;;;;;3.44;69.80;101063.75;5073946;28;20033;-76
2023/01/20 02:59:36;;;;;;;23.25;16.92;;;;;;;3.43;69.70;101056.75;5075461;28;20028;-76
2023/01/20 03:02:06;;;;;;;15.82;14.60;;;;;;;3.45;69.88;101056.56;5074328;28;20090;-76
2023/01/20 03:04:39;;;;;;;13.60;12.55;;;;;;;3.45;69.50;101068.09;5075582;28;20056;-76
2023/01/20 03:07:06;;;;;;;26.83;17.70;;;;;;;3.44;69.76;101074.44;5075427;28;20031;-76
2023/01/20 03:09:43;;;;;;;11.90;11.15;;;;;;;3.45;69.94;101069.91;5074252;28;20116;-76
2023/01/20 03:12:21;;;;;;;22.63;16.95;;;;;;;3.45;69.59;101062.75;5075428;28;20028;-76
2023/01/20 03:14:47;;;;;;;19.88;14.98;;;;;;;3.45;69.57;101060.06;5075392;28;20048;-76
2023/01/20 03:17:13;;;;;;;16.33;14.68;;;;;;;3.46;69.82;101060.91;5075251;28;20036;-76
2023/01/20 03:19:38;;;;;;;15.57;14.13;;;;;;;3.45;69.56;101060.06;5075648;28;20032;-77
2023/01/20 03:22:03;;;;;;;11.77;10.98;;;;;;;3.45;69.53;101054.75;5073810;28;20032;-77
2023/01/20 03:24:31;;;;;;;16.30;14.88;;;;;;;3.46;69.86;101058.22;5073832;28;20392;-77
2023/01/20 03:26:57;;;;;;;13.02;11.98;;;;;;;3.47;69.63;101062.53;5074956;28;20078;-76
2023/01/20 03:29:22;;;;;;;13.82;12.80;;;;;;;3.47;69.70;101059.88;5073765;28;20036;-76
2023/01/20 03:31:53;;;;;;;15.65;13.88;;;;;;;3.47;69.73;101067.88;5074827;28;20085;-76
2023/01/20 03:34:22;;;;;;;15.98;14.48;;;;;;;3.47;69.82;101074.03;5075495;28;20040;-76
2023/01/20 03:36:48;;;;;;;15.35;13.88;;;;;;;3.49;69.54;101078.38;5075419;28;20042;-76
2023/01/20 03:39:15;;;;;;;30.13;20.60;;;;;;;3.48;69.56;101074.91;5074354;28;20068;-76
2023/01/20 03:41:49;;;;;;;15.13;13.95;;;;;;;3.47;69.31;101068.69;5075098;28;20032;-77
2023/01/20 03:44:32;;;;;;;14.50;13.40;;;;;;;3.47;69.48;101076.72;5074673;28;20025;-77
2023/01/20 03:47:14;;;;;;;12.10;11.23;;;;;;;3.47;69.76;101067.88;5073747;28;20476;-75
2023/01/20 03:49:55;;;;;;;18.83;16.67;;;;;;;3.47;69.57;101070.56;5074775;28;20423;-75
2023/01/20 03:52:47;;;;;;;16.73;14.60;;;;;;;3.46;69.47;101076.91;5072011;28;20025;-76
2023/01/20 03:55:19;;;;;;;20.33;15.75;;;;;;;3.46;69.75;101079.59;5074105;28;20051;-76
2023/01/20 03:57:56;;;;;;;18.52;15.38;;;;;;;3.45;69.78;101076.09;5074463;28;20047;-76
2023/01/20 04:00:24;;;;;;;12.52;11.55;;;;;;;3.45;69.55;101075.25;5074432;28;20157;-76
2023/01/20 04:02:54;;;;;;;15.57;14.02;;;;;;;3.44;69.46;101078.94;5072947;28;20038;-76
2023/01/20 04:05:20;;;;;;;13.40;12.32;;;;;;;3.46;69.68;101077.75;5072868;28;20031;-76
2023/01/20 04:07:46;;;;;;;18.60;16.35;;;;;;;3.46;69.73;101075.06;5074785;28;20039;-75
2023/01/20 04:10:16;;;;;;;28.38;25.33;;;;;;;3.47;69.58;101078.56;5073998;28;20456;-75
2023/01/20 04:12:41;;;;;;;13.25;12.20;;;;;;;3.46;69.67;101075.06;5073243;28;20028;-76
2023/01/20 04:15:08;;;;;;;14.90;13.60;;;;;;;3.45;69.75;101080.59;5073019;28;20389;-75
2023/01/20 04:17:34;;;;;;;14.02;13.02;;;;;;;3.45;69.52;101080.59;5056337;28;20044;-75
2023/01/20 04:20:05;;;;;;;19.48;15.57;;;;;;;3.45;69.66;101075.25;5074066;28;20037;-76
2023/01/20 04:22:40;;;;;;;24.10;15.93;;;;;;;3.46;69.73;101083.09;5072900;28;20538;-76
2023/01/20 04:25:14;;;;;;;14.00;12.88;;;;;;;3.46;69.84;101082.25;5074169;28;20029;-75
2023/01/20 04:27:39;;;;;;;14.10;12.85;;;;;;;3.45;69.71;101080.59;5074043;28;20107;-76
2023/01/20 04:30:05;;;;;;;20.77;16.88;;;;;;;3.45;69.47;101084.13;5072606;28;20107;-75
2023/01/20 04:32:31;;;;;;;14.98;13.65;;;;;;;3.45;69.47;101081.44;5072952;28;20021;-78
2023/01/20 04:34:56;;;;;;;14.32;13.00;;;;;;;3.46;69.44;101072.41;5072849;28;20044;-76
2023/01/20 04:37:21;;;;;;;12.45;11.25;;;;;;;3.46;69.71;101082.25;5072442;28;20048;-76
2023/01/20 04:39:47;;;;;;;14.77;13.52;;;;;;;3.46;69.81;101084.94;5072527;28;20024;-75
2023/01/20 04:42:12;;;;;;;26.00;20.13;;;;;;;3.45;69.53;101084.13;5073484;28;20036;-75
2023/01/20 04:44:37;;;;;;;18.15;14.48;;;;;;;3.46;69.31;101088.44;5074157;28;20025;-75
2023/01/20 04:47:03;;;;;;;16.80;15.02;;;;;;;3.46;69.62;101082.25;5056420;28;20041;-75
2023/01/20 04:49:28;;;;;;;14.95;13.63;;;;;;;3.46;69.67;101095.63;5072248;28;20049;-77
2023/01/20 04:51:54;;;;;;;17.85;16.02;;;;;;;3.46;69.42;101088.44;5073499;28;20033;-75
2023/01/20 04:54:19;;;;;;;25.20;18.40;;;;;;;3.46;69.67;101084.94;5055283;28;20041;-76
2023/01/20 04:56:47;;;;;;;14.27;12.77;;;;;;;3.45;69.62;101102.81;5074094;28;20111;-76
2023/01/20 04:59:15;;;;;;;15.23;14.10;;;;;;;3.45;69.84;101110.81;5072125;28;20052;-75
2023/01/20 05:01:40;;;;;;;12.15;11.45;;;;;;;3.45;69.44;101109.97;5071954;28;20399;-75
2023/01/20 05:04:06;;;;;;;15.63;13.95;;;;;;;3.45;69.47;101112.63;5073354;28;20103;-75
2023/01/20 05:06:31;;;;;;;15.63;14.27;;;;;;;3.45;69.35;101115.31;5073147;28;20472;-75
2023/01/20 05:08:56;;;;;;;12.63;11.75;;;;;;;3.44;69.48;101109.16;5073392;28;20392;-78
2023/01/20 05:11:22;;;;;;;19.35;16.90;;;;;;;3.44;69.35;101093.13;5054920;28;20067;-75
2023/01/20 05:13:47;;;;;;;18.23;15.20;;;;;;;3.44;69.66;101095.78;5072647;28;20353;-75
2023/01/20 05:16:13;;;;;;;12.02;11.02;;;;;;;3.45;69.48;101088.59;5071777;28;20028;-74
2023/01/20 05:18:38;;;;;;;16.52;14.20;;;;;;;3.44;69.47;101094.97;5073808;28;20368;-77
2023/01/20 05:21:06;;;;;;;13.05;12.25;;;;;;;3.43;69.40;101102.16;5073552;28;20065;-75
2023/01/20 05:23:32;;;;;;;13.33;12.43;;;;;;;3.43;69.45;101104.00;5073834;28;20062;-75
2023/01/20 05:25:57;;;;;;;16.38;14.93;;;;;;;3.43;69.34;101101.34;5078069;28;20374;-75
2023/01/20 05:28:22;;;;;;;17.63;15.90;;;;;;;3.42;69.58;101108.50;5076543;28;20354;-75
2023/01/20 05:30:49;;;;;;;13.40;12.52;;;;;;;3.43;69.48;101112.84;5077243;28;20067;-75
2023/01/20 05:33:15;;;;;;;19.00;17.13;;;;;;;3.43;69.59;101114.69;5076079;28;20040;-74
2023/01/20 05:35:41;;;;;;;14.18;12.70;;;;;;;3.43;69.34;101112.84;5076700;28;20025;-77
2023/01/20 05:38:06;;;;;;;26.10;16.67;;;;;;;3.43;69.51;101112.03;5077668;28;20032;-75
2023/01/20 05:40:32;;;;;;;18.70;15.35;;;;;;;3.45;69.40;101112.63;5076669;28;20033;-76
2023/01/20 05:43:01;;;;;;;18.85;15.38;;;;;;;3.44;69.32;101114.47;5077805;28;20056;-77
2023/01/20 05:45:27;;;;;;;15.95;14.27;;;;;;;3.44;69.52;101121.69;5076856;28;20093;-77
2023/01/20 05:47:56;;;;;;;18.92;12.50;;;;;;;3.43;69.52;101123.53;5076150;28;20464;-74
2023/01/20 05:50:23;;;;;;;17.10;15.23;;;;;;;3.42;69.57;101118.34;5076775;28;20077;-74
2023/01/20 05:52:48;;;;;;;14.48;13.18;;;;;;;3.43;69.48;101120.03;5075240;28;20060;-77
2023/01/20 05:55:13;;;;;;;18.15;16.00;;;;;;;3.42;69.57;101115.69;5059095;28;20028;-76
2023/01/20 05:57:39;;;;;;;12.38;11.43;;;;;;;3.42;69.55;101127.19;5076738;28;20059;-76
2023/01/20 06:00:05;;;;;;;17.17;15.43;;;;;;;3.42;69.38;101124.53;5075160;28;20033;-76
2023/01/20 06:02:31;;;;;;;14.68;13.45;;;;;;;3.43;69.65;101126.19;5076350;28;20109;-75
2023/01/20 06:05:00;;;;;;;13.77;12.75;;;;;;;3.44;69.53;101132.34;5076455;28;20037;-76
2023/01/20 06:07:26;;;;;;;14.40;13.20;;;;;;;3.44;69.53;101138.53;5076913;28;20025;-75
2023/01/20 06:09:51;;;;;;;13.23;12.18;;;;;;;3.45;69.34;101139.34;5076159;28;20082;-79
2023/01/20 06:12:17;;;;;;;13.88;12.88;;;;;;;3.45;69.59;101144.69;5075993;28;20111;-74
2023/01/20 06:14:42;;;;;;;17.02;14.20;;;;;;;3.46;69.39;101146.34;5076260;28;20036;-78
2023/01/20 06:17:07;;;;;;;13.13;12.25;;;;;;;3.45;69.46;101145.53;5058524;28;20040;-76
2023/01/20 06:19:33;;;;;;;14.90;13.77;;;;;;;3.44;69.30;101141.19;5058173;28;20036;-78
2023/01/20 06:21:58;;;;;;;18.85;15.68;;;;;;;3.44;69.44;101146.53;5076202;28;20036;-76
2023/01/20 06:24:24;;;;;;;15.02;13.77;;;;;;;3.44;69.40;101133.19;5076420;28;20174;-76
2023/01/20 06:26:50;;;;;;;13.77;12.77;;;;;;;3.44;69.30;101143.03;5076358;28;20035;-76
2023/01/20 06:29:15;;;;;;;15.90;14.30;;;;;;;3.44;69.27;101137.69;5074580;28;20041;-76
2023/01/20 06:31:41;;;;;;;12.60;11.60;;;;;;;3.45;69.21;101126.00;5074491;28;20082;-76
2023/01/20 06:34:06;;;;;;;11.95;11.00;;;;;;;3.43;69.33;101120.84;5076071;28;20380;-75
2023/01/20 06:36:32;;;;;;;14.23;13.23;;;;;;;3.43;69.21;101128.03;5073612;28;20028;-75
2023/01/20 06:38:57;;;;;;;15.15;13.80;;;;;;;3.44;69.30;101135.84;5074497;28;20025;-75
2023/01/20 06:41:23;;;;;;;18.70;12.45;;;;;;;3.44;69.59;101135.84;5075825;28;20491;-75
2023/01/20 06:43:50;;;;;;;12.00;11.30;;;;;;;3.44;69.58;101127.03;5075262;28;20039;-75
2023/01/20 06:46:15;;;;;;;13.80;12.38;;;;;;;3.44;69.59;101127.03;5074692;28;20040;-75
2023/01/20 06:48:42;;;;;;;20.25;12.02;;;;;;;3.43;69.21;101120.03;5074617;28;20024;-75
2023/01/20 06:51:11;;;;;;;20.33;15.18;;;;;;;3.43;69.36;101115.50;5075649;28;20028;-75
2023/01/20 06:53:36;;;;;;;24.67;18.42;;;;;;;3.42;69.29;101123.69;5073431;28;20076;-75
2023/01/20 06:56:02;;;;;;;17.95;16.13;;;;;;;3.41;69.42;101125.53;5074285;28;20105;-75
2023/01/20 06:58:30;;;;;;;17.20;15.68;;;;;;;3.41;69.60;101120.22;5074718;28;20040;-74
2023/01/20 07:00:57;;;;;;;13.63;12.43;;;;;;;3.42;69.19;101131.72;5075566;28;20094;-75
2023/01/20 07:03:23;;;;;;;15.07;13.70;;;;;;;3.41;69.47;101125.53;5074111;28;20029;-75
2023/01/20 07:06:00;;;;;;;17.75;16.20;;;;;;;3.41;69.35;101122.88;5074164;28;20027;-75
2023/01/20 07:08:25;;;;;;;15.95;14.35;;;;;;;3.40;69.33;101129.25;5075354;28;20025;-75
2023/01/20 07:10:50;;;;;;;14.90;13.40;;;;;;;3.40;69.37;101133.72;5075488;28;20082;-75
2023/01/20 07:13:16;;;;;;;15.00;13.57;;;;;;;3.39;69.64;101135.59;5075201;28;20341;-75
2023/01/20 07:15:41;;;;;;;10.77;10.15;;;;;;;3.40;69.36;101128.41;5074917;28;20115;-76
2023/01/20 07:18:06;;;;;;;13.75;12.85;;;;;;;3.40;69.40;101131.91;5074128;28;20025;-76
2023/01/20 07:20:32;;;;;;;15.98;14.57;;;;;;;3.39;69.65;101134.75;5073517;28;20468;-75
2023/01/20 07:23:01;;;;;;;12.25;11.45;;;;;;;3.39;69.57;101140.09;5074324;28;20033;-75
2023/01/20 07:25:27;;;;;;;;;;;;;;;3.40;69.71;101149.75;5075686;28;20025;-75
2023/01/20 07:27:52;;;;;;;19.33;14.15;;;;;;;3.37;69.48;101153.63;5075191;28;19904;-76
2023/01/20 07:30:18;;;;;;;13.40;12.43;;;;;;;3.37;69.21;101158.97;5073600;28;20028;-76
2023/01/20 07:32:43;;;;;;;10.45;9.80;;;;;;;3.37;69.32;101164.31;5073556;28;20029;-75
2023/01/20 07:35:09;;;;;;;13.98;12.98;;;;;;;3.38;69.47;101168.66;5075161;28;20037;-76
2023/01/20 07:37:34;;;;;;;12.93;11.93;;;;;;;3.37;69.61;101168.81;5075191;28;20036;-75
2023/01/20 07:40:00;;;;;;;14.32;13.20;;;;;;;3.37;69.56;101160.81;5074487;28;20077;-76
2023/01/20 07:42:25;;;;;;;13.68;12.63;;;;;;;3.38;69.57;101157.16;5072982;28;20097;-75
2023/01/20 07:44:51;;;;;;;17.17;15.02;;;;;;;3.38;69.46;101157.16;5074878;28;20029;-76
2023/01/20 07:47:16;;;;;;;15.45;14.07;;;;;;;3.38;69.67;101160.63;5074221;28;20024;-77
2023/01/20 07:49:41;;;;;;;18.23;16.25;;;;;;;3.39;69.63;101162.28;5072990;28;20460;-76
2023/01/20 07:52:07;;;;;;;15.55;13.90;;;;;;;3.39;69.57;101159.63;5073515;28;20029;-75
2023/01/20 07:54:32;;;;;;;17.85;16.10;;;;;;;3.40;69.40;101160.44;5072668;28;20044;-74
2023/01/20 07:56:57;;;;;;;16.40;15.18;;;;;;;3.40;69.42;101163.97;5074166;28;20025;-75
2023/01/20 07:59:23;;;;;;;12.15;11.25;;;;;;;3.40;69.45;101163.09;5056278;28;20028;-75
2023/01/20 08:01:48;;;;;;;13.23;12.32;;;;;;;3.40;69.22;101163.09;5073590;28;20032;-74
2023/01/20 08:04:14;;;;;;;16.75;15.27;;;;;;;3.40;69.48;101163.97;5073826;28;20063;-75
2023/01/20 08:06:39;;;;;;;16.52;15.02;;;;;;;3.41;69.36;101172.78;5073544;28;20405;-74
2023/01/20 08:09:04;;;;;;;26.02;17.88;;;;;;;3.40;69.40;101169.31;5072560;28;20196;-75
2023/01/20 08:11:33;;;;;;;18.40;16.35;;;;;;;3.40;69.40;101177.31;5072396;28;20021;-75
2023/01/20 08:13:58;;;;;;;14.37;13.13;;;;;;;3.40;69.52;101174.66;5072889;28;20040;-74
2023/01/20 08:16:23;;;;;;;15.05;13.82;;;;;;;3.40;69.55;101174.66;5056148;28;20267;-75
2023/01/20 08:18:52;;;;;;;15.20;13.82;;;;;;;3.40;69.70;101179.97;5056002;28;20028;-74
2023/01/20 08:21:26;;;;;;;13.20;12.20;;;;;;;3.40;69.43;101179.97;5073963;28;20047;-75
2023/01/20 08:23:54;;;;;;;14.07;13.00;;;;;;;3.40;69.26;101188.00;5074068;28;20017;-75
2023/01/20 08:26:20;;;;;;;11.95;11.15;;;;;;;3.40;69.34;101188.00;5073459;28;20031;-75
2023/01/20 08:28:46;;;;;;;14.07;12.88;;;;;;;3.41;69.26;101186.16;5073932;28;20448;-74
2023/01/20 08:31:15;;;;;;;11.57;10.77;;;;;;;3.40;69.56;101196.00;5073660;28;20024;-76
2023/01/20 08:33:42;;;;;;;15.35;14.23;;;;;;;3.40;69.72;101198.69;5073423;28;20028;-76
2023/01/20 08:36:11;;;;;;;12.02;11.27;;;;;;;3.41;69.57;101189.63;5072278;28;20033;-75
2023/01/20 08:38:37;;;;;;;14.63;13.18;;;;;;;3.41;69.22;101194.16;5073444;28;20025;-74
2023/01/20 08:41:08;;;;;;;14.98;13.85;;;;;;;3.40;69.62;101198.69;5072287;28;20033;-79
2023/01/20 08:43:33;;;;;;;14.50;13.43;;;;;;;3.41;69.41;101200.31;5072215;28;20086;-76
2023/01/20 08:46:01;;;;;;;14.38;13.18;;;;;;;3.41;69.55;101197.66;5055615;28;20036;-77
2023/01/20 08:48:27;;;;;;;15.63;14.20;;;;;;;3.42;69.07;101201.16;5072507;28;20020;-78
2023/01/20 08:50:52;;;;;;;17.42;15.68;;;;;;;3.42;69.44;101207.31;5073463;28;20376;-75
2023/01/20 08:53:17;;;;;;;14.82;13.52;;;;;;;3.41;69.27;101200.31;5067555;28;20052;-75
2023/01/20 08:55:43;;;;;;;17.25;14.82;;;;;;;3.41;69.32;101197.66;5072515;28;20028;-75
2023/01/20 08:58:08;;;;;;;14.15;12.90;;;;;;;3.43;69.52;101200.16;5055276;28;20094;-75
2023/01/20 09:00:34;;;;;;;15.98;14.38;;;;;;;3.42;69.38;101201.97;5072267;28;20520;-77
2023/01/20 09:02:59;;;;;;;16.58;14.98;;;;;;;3.42;69.16;101196.63;5071625;28;20036;-77
2023/01/20 09:05:26;;;;;;;13.70;12.60;;;;;;;3.42;69.69;101191.28;5055318;28;20029;-77
2023/01/20 09:07:51;;;;;;;15.35;14.00;;;;;;;3.41;69.33;101194.97;5073355;28;20034;-77
2023/01/20 09:10:17;;;;;;;14.50;13.10;;;;;;;3.43;69.53;101195.63;5073119;28;20112;-77
2023/01/20 09:12:42;;;;;;;16.20;14.68;;;;;;;3.42;69.34;101209.16;5071786;28;20036;-76
2023/01/20 09:15:08;;;;;;;16.23;15.10;;;;;;;3.42;69.51;101209.16;5055327;28;20025;-77
2023/01/20 09:17:34;;;;;;;15.27;13.93;;;;;;;3.42;69.49;101212.66;5073607;28;20055;-77
2023/01/20 09:20:00;;;;;;;12.50;11.50;;;;;;;3.42;69.33;101209.97;5072127;28;20365;-77
2023/01/20 09:22:25;;;;;;;14.68;13.45;;;;;;;3.42;69.28;101212.66;5055310;28;20035;-77
2023/01/20 09:24:51;;;;;;;14.15;13.02;;;;;;;3.42;69.36;101218.00;5072021;28;20024;-78
2023/01/20 09:27:16;;;;;;;16.90;15.13;;;;;;;3.42;69.60;101214.50;5072036;28;20517;-78
2023/01/20 09:29:41;;;;;;;16.00;14.43;;;;;;;3.42;69.47;101220.66;5073272;28;20027;-77
2023/01/20 09:32:07;;;;;;;15.02;13.80;;;;;;;3.41;69.30;101232.38;5072024;28;20029;-77
2023/01/20 09:34:33;;;;;;;15.65;14.02;;;;;;;3.44;69.70;101233.84;5071863;28;20027;-77
2023/01/20 09:43:52;;;;;;;15.27;13.88;;;;;;;3.44;69.52;101233.84;5073136;28;20444;-77
2023/01/20 09:45:37;;;;;;;13.00;11.60;;;;;;;3.42;69.49;101220.66;5072974;28;20117;-77
2023/01/20 09:48:14;;;;;;;13.20;12.10;;;;;;;3.42;69.52;101227.84;5071826;28;20032;-77
2023/01/20 09:54:01;;;;;;;13.35;12.35;;;;;;;3.42;69.71;101222.50;5070504;28;20040;-77
2023/01/20 09:56:34;;;;;;;15.43;13.68;;;;;;;3.41;69.48;101226.19;5073289;28;20028;-78
2023/01/20 09:59:08;;;;;;;14.57;13.32;;;;;;;3.41;69.50;101227.03;5072946;28;20099;-79
2023/01/20 10:01:46;;;;;;;14.85;13.52;;;;;;;3.42;69.65;101222.50;5072653;28;20029;-77
2023/01/20 10:04:24;;;;;;;20.25;14.02;;;;;;;3.42;69.55;101222.50;5073462;28;20493;-77
2023/01/20 10:06:58;;;;;;;14.93;13.80;;;;;;;3.41;69.47;101211.00;5072811;28;20035;-76
2023/01/20 10:09:23;;;;;;;13.52;11.93;;;;;;;3.40;69.34;101212.03;5071814;28;20086;-76
2023/01/20 10:11:52;;;;;;;16.80;15.27;;;;;;;3.44;69.33;101217.81;5073570;28;20095;-72
2023/01/20 10:14:24;;;;;;;;;;;;;;;3.45;69.48;101216.78;5076548;28;20028;-75
2023/01/20 10:16:54;;;;;;;14.73;12.88;;;;;;;3.44;69.39;101210.63;5074811;28;19908;-76
2023/01/20 10:19:30;;;;;;;15.48;14.07;;;;;;;3.45;69.42;101214.13;5076207;28;20021;-76
2023/01/20 10:22:01;;;;;;;16.95;13.73;;;;;;;3.45;69.41;101216.78;5076912;28;20032;-78
2023/01/20 10:24:46;;;;;;;16.58;14.95;;;;;;;3.44;69.63;101226.66;5075859;28;20052;-76
2023/01/20 10:27:11;;;;;;;13.60;12.38;;;;;;;3.44;69.40;101232.00;5075997;28;20078;-76
2023/01/20 10:29:57;;;;;;;13.20;12.27;;;;;;;3.45;69.45;101236.34;5075097;28;20040;-76
2023/01/20 10:32:26;;;;;;;14.02;13.00;;;;;;;3.43;69.36;101230.34;5075836;28;20078;-75
2023/01/20 10:34:56;;;;;;;16.73;15.00;;;;;;;3.44;69.36;101236.50;5075627;28;20479;-76
2023/01/20 10:37:22;;;;;;;16.85;15.52;;;;;;;3.44;69.40;101239.19;5075908;28;20472;-76
2023/01/20 10:39:56;;;;;;;15.20;14.00;;;;;;;3.44;69.50;101231.16;5074770;28;20029;-76
2023/01/20 10:42:23;;;;;;;15.70;14.15;;;;;;;3.44;69.32;101240.00;5075749;28;20044;-76
2023/01/20 10:44:51;;;;;;;17.75;16.13;;;;;;;3.44;69.47;101234.66;5075759;28;20033;-76
2023/01/20 10:47:35;;;;;;;15.95;14.65;;;;;;;3.44;69.44;101233.84;5075623;28;20029;-75
2023/01/20 10:50:15;;;;;;;17.15;15.65;;;;;;;3.45;69.22;101238.16;5073903;28;20115;-76
2023/01/20 10:52:59;;;;;;;13.57;12.63;;;;;;;3.45;69.59;101243.50;5075513;28;20021;-75
2023/01/20 10:55:52;;;;;;;16.80;15.20;;;;;;;3.44;69.27;101241.84;5071627;28;20177;-75
2023/01/20 10:58:24;;;;;;;15.93;14.52;;;;;;;3.44;69.42;101226.66;5075641;28;20043;-75
2023/01/20 11:00:50;;;;;;;15.50;14.10;;;;;;;3.44;69.25;101228.50;5075599;28;20025;-75
2023/01/20 11:03:19;;;;;;;14.80;13.73;;;;;;;3.44;69.47;101239.19;5075265;28;20099;-75
2023/01/20 11:05:46;;;;;;;13.80;12.75;;;;;;;3.44;69.13;101228.50;5075221;28;20086;-75
2023/01/20 11:08:22;;;;;;;13.77;12.55;;;;;;;3.45;69.27;101236.34;5075703;28;20068;-75
2023/01/20 11:11:00;;;;;;;13.02;12.10;;;;;;;3.45;69.48;101241.69;5073525;28;20124;-75
2023/01/20 11:13:26;;;;;;;15.95;14.32;;;;;;;3.45;69.23;101247.03;5074000;28;20036;-75
2023/01/20 11:16:02;;;;;;;16.08;14.70;;;;;;;3.44;69.16;101242.69;5074938;28;20035;-75
2023/01/20 11:18:31;;;;;;;16.05;14.48;;;;;;;3.45;69.17;101256.84;5074695;28;20028;-75
2023/01/20 11:21:05;;;;;;;15.85;14.38;;;;;;;3.45;69.55;101254.19;5074834;28;20040;-76
2023/01/20 11:23:37;;;;;;;14.18;12.82;;;;;;;3.45;69.18;101252.38;5074815;28;20080;-75
2023/01/20 11:26:08;;;;;;;16.20;14.07;;;;;;;3.46;69.15;101253.19;5075200;28;20021;-75
2023/01/20 11:28:57;;;;;;;15.70;14.20;;;;;;;3.46;69.40;101248.66;5073631;28;20061;-75
2023/01/20 11:31:38;;;;;;;15.70;14.20;;;;;;;3.47;69.33;101244.97;5052612;28;20071;-75
2023/01/20 11:34:25;;;;;;;16.73;15.02;;;;;;;3.48;69.45;101235.16;5074833;28;20056;-75